createdAt,value
2023-04-09T00:01:20.394Z,101039.51
2023-04-09T00:03:48.531Z,101039.31
2023-04-09T00:06:16.640Z,101039.80
2023-04-09T00:08:44.661Z,101039.60
2023-04-09T00:11:12.647Z,101033.86
2023-04-09T00:13:41.073Z,101031.05
2023-04-09T00:16:09.354Z,101031.39
2023-04-09T00:18:37.774Z,101029.15
2023-04-09T00:21:07.214Z,101025.88
2023-04-09T00:23:35.680Z,101023.80
2023-04-09T00:26:03.729Z,101020.70
2023-04-09T00:28:31.650Z,101015.86
2023-04-09T00:30:59.746Z,101016.03
2023-04-09T00:33:28.347Z,101014.13
2023-04-09T00:35:56.951Z,101019.13
2023-04-09T00:38:25.556Z,101014.84
2023-04-09T00:40:53.524Z,101008.96
2023-04-09T00:43:21.697Z,101013.45
2023-04-09T00:45:49.673Z,101007.54
2023-04-09T00:48:17.975Z,101005.61
2023-04-09T00:50:45.962Z,101003.34
2023-04-09T00:53:14.959Z,101001.45
2023-04-09T00:55:43.185Z,100995.02
2023-04-09T00:58:11.304Z,100993.50
2023-04-09T01:00:39.306Z,100996.11
2023-04-09T01:03:08.028Z,100997.33
2023-04-09T01:06:01.993Z,100997.02
2023-04-09T01:08:49.349Z,100995.98
2023-04-09T01:11:46.430Z,100998.34
2023-04-09T01:14:20.642Z,100997.50
2023-04-09T01:16:56.027Z,100997.14
2023-04-09T01:19:48.917Z,100997.13
2023-04-09T01:22:25.108Z,100998.48
2023-04-09T01:25:09.777Z,101001.39
2023-04-09T01:27:56.528Z,101003.48
2023-04-09T01:30:26.841Z,101002.25
2023-04-09T01:32:57.295Z,101004.16
2023-04-09T01:35:27.295Z,101007.25
2023-04-09T01:37:56.799Z,101009.33
2023-04-09T01:40:25.141Z,101006.41
2023-04-09T01:42:55.031Z,101004.66
2023-04-09T01:45:23.923Z,101005.92
2023-04-09T01:47:53.907Z,101005.76
2023-04-09T01:50:22.584Z,101013.70
2023-04-09T01:52:51.080Z,101016.14
2023-04-09T01:55:19.588Z,101016.34
2023-04-09T01:57:47.458Z,101017.73
2023-04-09T02:00:16.512Z,101016.89
2023-04-09T02:03:05.837Z,101023.95
2023-04-09T02:05:38.876Z,101026.02
2023-04-09T02:08:12.066Z,101029.77
2023-04-09T02:10:40.806Z,101031.99
2023-04-09T02:13:14.191Z,101026.26
2023-04-09T02:15:43.889Z,101026.89
2023-04-09T02:18:27.327Z,101031.23
2023-04-09T02:20:57.322Z,101031.23
2023-04-09T02:23:29.670Z,101034.88
2023-04-09T02:25:57.659Z,101029.86
2023-04-09T02:28:25.640Z,101032.96
2023-04-09T02:30:53.686Z,101029.99
2023-04-09T02:33:22.129Z,101027.34
2023-04-09T02:35:50.957Z,101028.00
2023-04-09T02:38:20.757Z,101022.44
2023-04-09T02:40:48.784Z,101018.96
2023-04-09T02:43:17.101Z,101018.59
2023-04-09T02:45:45.059Z,101023.55
2023-04-09T02:48:12.960Z,101026.48
2023-04-09T02:50:41.547Z,101025.92
2023-04-09T02:53:09.484Z,101024.36
2023-04-09T02:55:37.602Z,101020.71
2023-04-09T02:58:05.679Z,101020.86
2023-04-09T03:00:34.192Z,101018.42
2023-04-09T03:03:02.361Z,101023.77
2023-04-09T03:05:30.598Z,101024.10
2023-04-09T03:07:58.528Z,101023.41
2023-04-09T03:10:26.543Z,101028.24
2023-04-09T03:12:54.528Z,101022.04
2023-04-09T03:15:22.801Z,101018.75
2023-04-09T03:17:50.745Z,101017.88
2023-04-09T03:20:18.739Z,101016.67
2023-04-09T03:22:46.659Z,101015.44
2023-04-09T03:25:30.470Z,101014.55
2023-04-09T03:27:58.891Z,101013.14
2023-04-09T03:30:34.090Z,101013.64
2023-04-09T03:33:03.604Z,101009.95
2023-04-09T03:35:32.940Z,101010.30
2023-04-09T03:38:01.452Z,101009.59
2023-04-09T03:40:29.688Z,101006.64
2023-04-09T03:42:57.821Z,101005.98
2023-04-09T03:45:26.144Z,101003.90
2023-04-09T03:48:02.358Z,101000.58
2023-04-09T03:50:30.552Z,100999.70
2023-04-09T03:52:58.620Z,100998.30
2023-04-09T03:55:27.173Z,101001.02
2023-04-09T03:57:55.413Z,101004.02
2023-04-09T04:05:17.144Z,100998.05
2023-04-09T04:07:47.614Z,100990.46
2023-04-09T04:10:19.818Z,100993.65
2023-04-09T04:12:48.704Z,100993.19
2023-04-09T04:15:27.033Z,101002.02
2023-04-09T04:17:56.435Z,101006.13
2023-04-09T04:20:36.429Z,101009.00
2023-04-09T04:23:08.600Z,101009.13
2023-04-09T04:25:42.765Z,101015.73
2023-04-09T04:28:13.091Z,101016.69
2023-04-09T04:34:58.108Z,101021.75
2023-04-09T04:37:26.465Z,101026.80
2023-04-09T04:39:55.894Z,101027.11
2023-04-09T04:42:22.856Z,101031.48
2023-04-09T04:44:49.599Z,101036.09
2023-04-09T04:47:36.334Z,101043.25
2023-04-09T04:50:04.072Z,101047.88
2023-04-09T04:52:33.461Z,101046.85
2023-04-09T04:55:01.252Z,101043.46
2023-04-09T04:57:27.979Z,101045.09
2023-04-09T04:59:55.115Z,101047.59
2023-04-09T05:02:21.836Z,101046.48
2023-04-09T05:04:55.655Z,101045.59
2023-04-09T05:07:27.781Z,101052.98
2023-04-09T05:09:54.544Z,101049.64
2023-04-09T05:12:21.055Z,101049.14
2023-04-09T05:14:50.415Z,101048.55
2023-04-09T05:17:17.098Z,101046.77
2023-04-09T05:19:51.153Z,101047.81
2023-04-09T05:22:18.222Z,101043.98
2023-04-09T05:24:45.504Z,101041.04
2023-04-09T05:27:12.712Z,101037.52
2023-04-09T05:29:52.722Z,101043.88
2023-04-09T05:32:19.744Z,101044.32
2023-04-09T05:34:46.671Z,101037.70
2023-04-09T05:37:14.241Z,101041.46
2023-04-09T05:39:41.832Z,101043.75
2023-04-09T05:42:08.565Z,101047.45
2023-04-09T05:44:40.461Z,101045.04
2023-04-09T05:47:17.385Z,101040.21
2023-04-09T05:50:16.676Z,101045.39
2023-04-09T05:52:43.421Z,101049.34
2023-04-09T05:55:11.739Z,101046.36
2023-04-09T05:57:44.727Z,101047.83
2023-04-09T06:00:12.766Z,101049.48
2023-04-09T06:02:46.276Z,101048.01
2023-04-09T06:05:13.459Z,101046.35
2023-04-09T06:07:40.657Z,101048.88
2023-04-09T06:10:07.923Z,101045.16
2023-04-09T06:12:35.599Z,101049.56
2023-04-09T06:15:06.132Z,101051.61
2023-04-09T06:17:32.911Z,101051.64
2023-04-09T06:19:59.503Z,101048.35
2023-04-09T06:22:26.147Z,101054.52
2023-04-09T06:24:52.589Z,101057.06
2023-04-09T06:27:21.560Z,101057.95
2023-04-09T06:29:48.296Z,101054.03
2023-04-09T06:32:15.025Z,101054.73
2023-04-09T06:34:41.609Z,101051.01
2023-04-09T06:37:08.154Z,101055.94
2023-04-09T06:39:35.151Z,101054.47
2023-04-09T06:42:03.271Z,101055.11
2023-04-09T06:44:38.539Z,101055.36
2023-04-09T06:47:05.515Z,101055.86
2023-04-09T06:49:32.333Z,101054.25
2023-04-09T06:51:58.947Z,101051.20
2023-04-09T06:54:25.752Z,101053.13
2023-04-09T06:56:52.379Z,101057.86
2023-04-09T06:59:19.455Z,101062.91
2023-04-09T07:01:47.119Z,101062.98
2023-04-09T07:04:14.064Z,101062.14
2023-04-09T07:06:40.976Z,101064.50
2023-04-09T07:09:07.671Z,101065.02
2023-04-09T07:11:34.341Z,101065.34
2023-04-09T07:14:01.108Z,101067.04
2023-04-09T07:16:28.097Z,101066.27
2023-04-09T07:18:55.013Z,101065.52
2023-04-09T07:21:21.814Z,101064.00
2023-04-09T07:23:48.521Z,101068.38
2023-04-09T07:26:15.087Z,101071.20
2023-04-09T07:28:41.657Z,101068.43
2023-04-09T07:31:08.833Z,101072.23
2023-04-09T07:33:35.740Z,101071.20
2023-04-09T07:36:02.552Z,101073.81
2023-04-09T07:38:29.744Z,101071.02
2023-04-09T07:40:56.583Z,101075.21
2023-04-09T07:43:23.164Z,101081.98
2023-04-09T07:45:51.073Z,101088.89
2023-04-09T07:48:17.631Z,101085.52
2023-04-09T07:50:47.668Z,101083.02
2023-04-09T07:53:15.898Z,101084.09
2023-04-09T07:55:42.608Z,101079.64
2023-04-09T07:58:09.542Z,101083.70
2023-04-09T08:00:36.214Z,101081.83
2023-04-09T08:03:03.391Z,101085.45
2023-04-09T08:05:30.941Z,101081.77
2023-04-09T08:07:57.687Z,101081.22
2023-04-09T08:10:24.762Z,101080.27
2023-04-09T08:12:51.623Z,101077.39
2023-04-09T08:15:18.456Z,101076.65
2023-04-09T08:17:45.213Z,101076.96
2023-04-09T08:20:12.138Z,101081.79
2023-04-09T08:22:40.422Z,101081.92
2023-04-09T08:25:07.436Z,101081.52
2023-04-09T08:27:35.433Z,101083.55
2023-04-09T08:30:02.981Z,101082.99
2023-04-09T08:32:29.480Z,101077.16
2023-04-09T08:34:56.161Z,101083.20
2023-04-09T08:37:22.809Z,101080.59
2023-04-09T08:39:49.316Z,101080.56
2023-04-09T08:42:16.464Z,101082.54
2023-04-09T08:44:43.248Z,101078.15
2023-04-09T08:47:13.899Z,101083.98
2023-04-09T08:49:41.334Z,101081.98
2023-04-09T08:52:08.150Z,101077.43
2023-04-09T08:54:34.991Z,101073.70
2023-04-09T08:57:05.323Z,101073.50
2023-04-09T08:59:36.274Z,101077.17
2023-04-09T09:02:08.094Z,101076.11
2023-04-09T09:04:48.971Z,101080.00
2023-04-09T09:07:16.424Z,101076.45
2023-04-09T09:10:01.687Z,101079.94
2023-04-09T09:12:31.464Z,101085.20
2023-04-09T09:14:58.382Z,101086.95
2023-04-09T09:17:25.995Z,101082.11
2023-04-09T09:19:52.771Z,101081.92
2023-04-09T09:22:19.240Z,101079.67
2023-04-09T09:24:50.665Z,101082.99
2023-04-09T09:27:36.137Z,101082.94
2023-04-09T09:30:05.238Z,101086.23
2023-04-09T09:32:33.238Z,101091.89
2023-04-09T09:35:05.556Z,101088.66
2023-04-09T09:37:33.430Z,101094.89
2023-04-09T09:40:00.606Z,101096.27
2023-04-09T09:42:27.431Z,101098.38
2023-04-09T09:44:54.742Z,101095.17
2023-04-09T09:47:22.516Z,101096.45
2023-04-09T09:49:50.115Z,101100.04
2023-04-09T09:52:23.872Z,101097.27
2023-04-09T09:54:52.682Z,101095.34
2023-04-09T09:57:23.023Z,101092.92
2023-04-09T10:00:01.309Z,101094.84
2023-04-09T10:02:35.725Z,101091.88
2023-04-09T10:05:05.540Z,101087.15
2023-04-09T10:07:32.333Z,101086.27
2023-04-09T10:10:00.883Z,101086.23
2023-04-09T10:12:28.145Z,101088.98
2023-04-09T10:14:55.754Z,101082.67
2023-04-09T10:17:23.116Z,101081.73
2023-04-09T10:20:22.366Z,101078.52
2023-04-09T10:22:51.958Z,101078.16
2023-04-09T10:25:19.228Z,101075.00
2023-04-09T10:27:48.250Z,101074.80
2023-04-09T10:30:35.963Z,101071.98
2023-04-09T10:33:09.665Z,101068.16
2023-04-09T10:35:36.565Z,101070.35
2023-04-09T10:38:03.260Z,101066.69
2023-04-09T10:40:30.220Z,101064.03
2023-04-09T10:42:58.836Z,101064.36
2023-04-09T10:45:38.285Z,101063.79
2023-04-09T10:48:04.904Z,101062.61
2023-04-09T10:50:32.212Z,101062.67
2023-04-09T10:53:00.053Z,101058.23
2023-04-09T10:55:30.152Z,101058.77
2023-04-09T10:57:58.037Z,101058.92
2023-04-09T11:05:14.871Z,101056.94
2023-04-09T11:07:54.593Z,101064.61
2023-04-09T11:10:22.684Z,101063.08
2023-04-09T11:12:50.860Z,101061.16
2023-04-09T11:15:20.100Z,101061.46
2023-04-09T11:17:48.911Z,101060.75
2023-04-09T11:20:21.578Z,101060.33
2023-04-09T11:22:54.741Z,101059.65
2023-04-09T11:25:26.235Z,101055.76
2023-04-09T11:27:55.653Z,101051.48
2023-04-09T11:30:23.654Z,101052.91
2023-04-09T11:32:51.696Z,101053.27
2023-04-09T11:35:21.573Z,101053.41
2023-04-09T11:37:52.361Z,101047.27
2023-04-09T11:40:22.910Z,101048.94
2023-04-09T11:42:53.957Z,101042.42
2023-04-09T11:45:29.846Z,101041.30
2023-04-09T11:47:58.319Z,101045.40
2023-04-09T11:50:26.667Z,101042.79
2023-04-09T11:52:54.915Z,101042.72
2023-04-09T11:55:24.648Z,101041.06
2023-04-09T11:58:01.783Z,101044.58
2023-04-09T12:00:29.915Z,101043.58
2023-04-09T12:03:03.822Z,101043.72
2023-04-09T12:05:34.769Z,101049.98
2023-04-09T12:08:05.684Z,101049.52
2023-04-09T12:10:38.656Z,101046.89
2023-04-09T12:13:10.402Z,101046.24
2023-04-09T12:15:42.033Z,101047.96
2023-04-09T12:18:14.183Z,101049.33
2023-04-09T12:20:44.526Z,101049.83
2023-04-09T12:23:13.588Z,101046.56
2023-04-09T12:25:43.829Z,101047.90
2023-04-09T12:28:15.574Z,101044.39
2023-04-09T12:30:44.200Z,101046.87
2023-04-09T12:33:12.361Z,101042.44
2023-04-09T12:35:40.618Z,101045.52
2023-04-09T12:38:08.878Z,101044.17
2023-04-09T12:40:37.201Z,101044.77
2023-04-09T12:43:06.327Z,101045.77
2023-04-09T12:45:35.156Z,101047.80
2023-04-09T12:48:04.163Z,101041.80
2023-04-09T12:50:32.312Z,101045.76
2023-04-09T12:53:00.371Z,101043.98
2023-04-09T12:55:28.592Z,101041.64
2023-04-09T12:57:56.616Z,101040.05
2023-04-09T13:00:24.672Z,101038.04
2023-04-09T13:02:52.978Z,101035.94
2023-04-09T13:05:21.516Z,101032.42
2023-04-09T13:07:49.409Z,101032.60
2023-04-09T13:10:17.573Z,101028.27
2023-04-09T13:12:45.764Z,101024.76
2023-04-09T13:15:14.206Z,101020.79
2023-04-09T13:17:42.715Z,101021.20
2023-04-09T13:20:10.952Z,101022.59
2023-04-09T13:22:39.120Z,101015.55
2023-04-09T13:25:07.360Z,101007.33
2023-04-09T13:27:35.550Z,101005.75
2023-04-09T13:30:03.899Z,101003.73
2023-04-09T13:32:31.921Z,101002.50
2023-04-09T13:35:00.087Z,101005.77
2023-04-09T13:37:28.861Z,101003.92
2023-04-09T13:39:56.856Z,101005.48
2023-04-09T13:42:25.202Z,101005.48
2023-04-09T13:44:53.846Z,101002.55
2023-04-09T13:47:23.979Z,101006.54
2023-04-09T13:49:53.353Z,101005.27
2023-04-09T13:52:21.389Z,101004.26
2023-04-09T13:54:49.553Z,101007.84
2023-04-09T13:57:18.108Z,101002.34
2023-04-09T13:59:46.331Z,101000.13
2023-04-09T14:02:14.516Z,100998.00
2023-04-09T14:04:42.680Z,100994.23
2023-04-09T14:07:10.739Z,100996.88
2023-04-09T14:09:38.620Z,100992.70
2023-04-09T14:12:06.812Z,100991.19
2023-04-09T14:14:34.965Z,100992.18
2023-04-09T14:17:03.061Z,100989.73
2023-04-09T14:19:31.156Z,100993.52
2023-04-09T14:21:59.231Z,100987.15
2023-04-09T14:24:27.247Z,100991.41
2023-04-09T14:26:55.460Z,100992.51
2023-04-09T14:29:23.547Z,100988.98
2023-04-09T14:31:53.516Z,100986.16
2023-04-09T14:34:23.038Z,100983.72
2023-04-09T14:36:51.389Z,100979.56
2023-04-09T14:39:19.512Z,100981.52
2023-04-09T14:41:47.547Z,100981.95
2023-04-09T14:44:15.897Z,100979.83
2023-04-09T14:46:44.992Z,100976.42
2023-04-09T14:49:13.398Z,100973.57
2023-04-09T14:51:41.461Z,100974.92
2023-04-09T14:54:09.416Z,100972.84
2023-04-09T14:56:37.478Z,100973.39
2023-04-09T14:59:05.367Z,100972.75
2023-04-09T15:01:33.521Z,100972.70
2023-04-09T15:04:01.570Z,100974.08
2023-04-09T15:06:29.700Z,100975.61
2023-04-09T15:08:57.798Z,100972.40
2023-04-09T15:11:25.969Z,100975.03
2023-04-09T15:13:54.504Z,100974.92
2023-04-09T15:16:27.940Z,100974.58
2023-04-09T15:18:58.688Z,100976.25
2023-04-09T15:21:27.935Z,100976.95
2023-04-09T15:23:58.874Z,100977.97
2023-04-09T15:26:27.473Z,100975.83
2023-04-09T15:29:04.954Z,100977.36
2023-04-09T15:31:33.865Z,100973.19
2023-04-09T15:34:04.518Z,100971.72
2023-04-09T15:36:32.674Z,100969.10
2023-04-09T15:39:02.669Z,100969.46
2023-04-09T15:41:32.320Z,100974.38
2023-04-09T15:44:00.477Z,100980.11
2023-04-09T15:46:29.040Z,100981.04
2023-04-09T15:48:57.347Z,100981.48
2023-04-09T15:51:25.488Z,100981.71
2023-04-09T15:53:53.558Z,100983.27
2023-04-09T15:56:21.651Z,100983.32
2023-04-09T15:58:49.829Z,100988.38
2023-04-09T16:01:19.016Z,100987.38
2023-04-09T16:03:51.997Z,100987.27
2023-04-09T16:06:21.197Z,100986.09
2023-04-09T16:08:49.496Z,100988.89
2023-04-09T16:11:18.556Z,100988.57
2023-04-09T16:13:46.862Z,100988.60
2023-04-09T16:16:14.909Z,100990.89
2023-04-09T16:18:42.916Z,100992.98
2023-04-09T16:21:11.279Z,100993.36
2023-04-09T16:23:39.927Z,100996.16
2023-04-09T16:26:08.000Z,100998.95
2023-04-09T16:28:39.292Z,100998.79
2023-04-09T16:31:07.417Z,100995.48
2023-04-09T16:33:35.689Z,100998.98
2023-04-09T16:36:03.733Z,100999.85
2023-04-09T16:38:31.922Z,100998.12
2023-04-09T16:40:59.865Z,100997.06
2023-04-09T16:43:27.930Z,100999.67
2023-04-09T16:45:56.521Z,100998.98
2023-04-09T16:48:24.684Z,101003.17
2023-04-09T16:50:52.887Z,101004.73
2023-04-09T16:53:21.281Z,101003.86
2023-04-09T16:55:50.019Z,101006.65
2023-04-09T16:58:18.024Z,101003.54
2023-04-09T17:00:47.775Z,101004.42
2023-04-09T17:03:20.830Z,101007.56
2023-04-09T17:05:49.429Z,101018.88
2023-04-09T17:08:18.393Z,101015.58
2023-04-09T17:10:46.368Z,101025.30
2023-04-09T17:13:14.499Z,101024.08
2023-04-09T17:15:43.183Z,101024.05
2023-04-09T17:18:11.556Z,101026.31
2023-04-09T17:20:39.580Z,101026.83
2023-04-09T17:23:07.747Z,101026.81
2023-04-09T17:25:35.908Z,101028.04
2023-04-09T17:28:04.981Z,101030.46
2023-04-09T17:30:33.427Z,101033.23
2023-04-09T17:33:01.865Z,101035.48
2023-04-09T17:35:30.014Z,101039.80
2023-04-09T17:37:58.314Z,101040.66
2023-04-09T17:40:27.646Z,101034.90
2023-04-09T17:42:56.272Z,101036.27
2023-04-09T17:45:24.560Z,101038.70
2023-04-09T17:47:52.752Z,101041.63
2023-04-09T17:50:21.012Z,101042.48
2023-04-09T17:52:49.064Z,101047.66
2023-04-09T17:55:18.432Z,101054.77
2023-04-09T17:57:46.786Z,101057.67
2023-04-09T18:00:15.318Z,101062.50
2023-04-09T18:02:54.276Z,101064.73
2023-04-09T18:05:23.528Z,101066.96
2023-04-09T18:07:52.662Z,101069.70
2023-04-09T18:10:23.317Z,101071.05
2023-04-09T18:12:51.986Z,101071.54
2023-04-09T18:15:21.787Z,101071.51
2023-04-09T18:17:49.994Z,101077.73
2023-04-09T18:20:18.747Z,101077.56
2023-04-09T18:22:47.351Z,101079.94
2023-04-09T18:25:15.982Z,101078.52
2023-04-09T18:27:44.701Z,101086.13
2023-04-09T18:30:13.170Z,101089.75
2023-04-09T18:32:41.141Z,101094.07
2023-04-09T18:35:10.012Z,101096.46
2023-04-09T18:37:38.466Z,101095.54
2023-04-09T18:40:09.489Z,101100.02
2023-04-09T18:42:37.535Z,101098.61
2023-04-09T18:45:07.125Z,101104.48
2023-04-09T18:47:37.305Z,101106.19
2023-04-09T18:50:06.563Z,101106.48
2023-04-09T18:52:38.239Z,101111.13
2023-04-09T18:55:06.759Z,101107.81
2023-04-09T18:57:34.873Z,101106.73
2023-04-09T19:04:40.031Z,101104.92
2023-04-09T19:07:08.454Z,101105.39
2023-04-09T19:09:37.529Z,101106.21
2023-04-09T19:12:07.650Z,101102.21
2023-04-09T19:14:36.963Z,101103.04
2023-04-09T19:17:05.495Z,101099.04
2023-04-09T19:19:34.035Z,101104.20
2023-04-09T19:22:02.970Z,101103.33
2023-04-09T19:24:32.527Z,101105.92
2023-04-09T19:27:04.852Z,101101.91
2023-04-09T19:29:33.698Z,101107.10
2023-04-09T19:32:06.048Z,101105.19
2023-04-09T19:34:34.425Z,101107.77
2023-04-09T19:37:03.035Z,101107.75
2023-04-09T19:39:31.689Z,101108.42
2023-04-09T19:42:00.725Z,101109.61
2023-04-09T19:44:28.823Z,101107.85
2023-04-09T19:46:57.346Z,101104.38
2023-04-09T19:49:28.353Z,101105.41
2023-04-09T19:51:56.965Z,101107.11
2023-04-09T19:54:25.231Z,101107.55
2023-04-09T19:56:57.010Z,101106.45
2023-04-09T19:59:36.148Z,101104.46
2023-04-09T20:02:04.431Z,101103.19
2023-04-09T20:04:33.022Z,101105.20
2023-04-09T20:07:01.399Z,101104.98
2023-04-09T20:09:29.432Z,101105.79
2023-04-09T20:12:04.480Z,101101.23
2023-04-09T20:14:32.528Z,101102.39
2023-04-09T20:17:00.769Z,101100.61
2023-04-09T20:19:29.127Z,101100.93
2023-04-09T20:21:57.277Z,101101.94
2023-04-09T20:24:26.995Z,101107.95
2023-04-09T20:26:56.382Z,101105.63
2023-04-09T20:29:24.694Z,101108.30
2023-04-09T20:31:52.737Z,101113.06
2023-04-09T20:34:26.527Z,101108.70
2023-04-09T20:36:56.065Z,101108.50
2023-04-09T20:39:26.805Z,101110.73
2023-04-09T20:41:56.775Z,101111.23
2023-04-09T20:44:24.896Z,101108.81
2023-04-09T20:46:52.896Z,101112.95
2023-04-09T20:49:21.475Z,101112.61
2023-04-09T20:51:49.909Z,101109.81
2023-04-09T20:54:18.124Z,101109.78
2023-04-09T20:56:46.223Z,101114.77
2023-04-09T20:59:15.793Z,101113.36
2023-04-09T21:01:44.123Z,101107.98
2023-04-09T21:04:12.835Z,101109.85
2023-04-09T21:06:41.302Z,101104.95
2023-04-09T21:09:09.546Z,101099.36
2023-04-09T21:11:37.708Z,101099.46
2023-04-09T21:14:07.103Z,101098.90
2023-04-09T21:16:35.699Z,101099.52
2023-04-09T21:19:07.641Z,101104.14
2023-04-09T21:21:37.656Z,101107.26
2023-04-09T21:24:05.900Z,101108.45
2023-04-09T21:26:49.423Z,101107.19
2023-04-09T21:29:21.312Z,101109.20
2023-04-09T21:31:49.990Z,101113.27
2023-04-09T21:34:18.004Z,101109.55
2023-04-09T21:36:47.312Z,101111.19
2023-04-09T21:39:15.597Z,101112.88
2023-04-09T21:41:44.084Z,101109.59
2023-04-09T21:44:12.572Z,101109.92
2023-04-09T21:46:41.767Z,101110.56
2023-04-09T21:49:09.856Z,101112.20
2023-04-09T21:51:38.902Z,101113.65
2023-04-09T21:54:08.782Z,101108.02
2023-04-09T21:56:37.289Z,101105.34
2023-04-09T21:59:06.357Z,101109.43
2023-04-09T22:01:35.466Z,101111.99
2023-04-09T22:04:04.152Z,101112.48
2023-04-09T22:06:32.498Z,101109.35
2023-04-09T22:09:01.075Z,101108.42
2023-04-09T22:11:29.442Z,101109.44
2023-04-09T22:13:57.742Z,101108.98
2023-04-09T22:16:26.435Z,101109.77
2023-04-09T22:18:55.389Z,101107.08
2023-04-09T22:21:24.191Z,101108.20
2023-04-09T22:23:52.213Z,101108.46
2023-04-09T22:26:20.269Z,101106.80
2023-04-09T22:28:48.236Z,101114.06
2023-04-09T22:31:17.456Z,101118.33
2023-04-09T22:33:45.544Z,101116.73
2023-04-09T22:36:13.575Z,101118.79
2023-04-09T22:38:41.706Z,101120.32
2023-04-09T22:41:10.032Z,101112.73
2023-04-09T22:43:38.089Z,101115.33
2023-04-09T22:46:06.282Z,101114.63
2023-04-09T22:48:40.808Z,101110.05
2023-04-09T22:51:13.901Z,101113.48
2023-04-09T22:53:42.371Z,101114.41
2023-04-09T22:56:10.464Z,101117.05
2023-04-09T22:58:38.632Z,101118.16
2023-04-09T23:01:07.232Z,101117.02
2023-04-09T23:03:35.676Z,101118.53
2023-04-09T23:06:04.282Z,101119.45
2023-04-09T23:08:32.415Z,101119.55
2023-04-09T23:11:01.212Z,101123.30
2023-04-09T23:13:29.514Z,101117.77
2023-04-09T23:15:58.275Z,101119.86
2023-04-09T23:18:26.321Z,101114.86
2023-04-09T23:20:54.409Z,101117.70
2023-04-09T23:23:23.235Z,101116.70
2023-04-09T23:25:51.241Z,101114.84
2023-04-09T23:28:19.393Z,101113.23
2023-04-09T23:30:47.441Z,101118.70
2023-04-09T23:33:15.451Z,101117.84
2023-04-09T23:35:43.589Z,101117.09
2023-04-09T23:38:11.729Z,101113.67
2023-04-09T23:40:39.765Z,101112.19
2023-04-09T23:43:09.061Z,101111.02
2023-04-09T23:45:37.256Z,101108.13
2023-04-09T23:48:06.236Z,101103.44
2023-04-09T23:50:37.401Z,101100.31
2023-04-09T23:53:05.533Z,101101.15
2023-04-09T23:55:38.079Z,101103.33
2023-04-09T23:58:06.142Z,101105.64
